Time;durP1;ratioP1;P1;durP2;ratioP2;P2;SDS_P1;SDS_P2;PMS_P1;PMS_P2;Temp;Humidity;BMP_temperature;BMP_pressure;BME280_temperature;BME280_humidity;BME280_pressure;Samples;Min_cycle;Max_cycle;Signal;HPM_P1;HPM_P2
2022/06/03 00:01:07;;;;;;;6.85;3.35;;;;;;;;;;5099441;27;20027;-73
2022/06/03 00:04:13;;;;;;;4.57;3.70;;;;;;;;;;5107161;27;20027;-75
2022/06/03 00:06:44;;;;;;;4.28;3.25;;;;;;;;;;5119341;27;20039;-77
2022/06/03 00:09:47;;;;;;;5.30;3.53;;;;;;;;;;5118848;27;20023;-75
2022/06/03 00:12:26;;;;;;;5.63;3.60;;;;;;;;;;5121883;27;20092;-76
2022/06/03 00:15:12;;;;;;;5.18;3.67;;;;;;;;;;5101174;27;20368;-73
2022/06/03 00:18:10;;;;;;;5.40;3.58;;;;;;;;;;5118441;27;20022;-76
2022/06/03 00:21:03;;;;;;;4.65;3.55;;;;;;;;;;5101891;27;20034;-73
2022/06/03 00:23:47;;;;;;;5.90;3.78;;;;;;;;;;5096738;27;20068;-74
2022/06/03 00:26:27;;;;;;;5.38;3.47;;;;;;;;;;5123197;27;20027;-77
2022/06/03 00:29:11;;;;;;;5.07;3.65;;;;;;;;;;5097837;27;20571;-73
2022/06/03 00:31:39;;;;;;;4.68;3.63;;;;;;;;;;5117476;27;20085;-73
2022/06/03 00:34:41;;;;;;;4.55;3.50;;;;;;;;;;5118283;27;20456;-74
2022/06/03 00:37:22;;;;;;;6.40;4.10;;;;;;;;;;5105433;27;20036;-73
2022/06/03 00:39:57;;;;;;;5.72;3.92;;;;;;;;;;5121808;27;20035;-73
2022/06/03 00:42:36;;;;;;;4.75;3.80;;;;;;;;;;5118092;27;20030;-74
2022/06/03 00:45:12;;;;;;;6.63;4.30;;;;;;;;;;5122366;27;20543;-73
2022/06/03 00:48:17;;;;;;;5.38;4.13;;;;;;;;;;5125123;27;20536;-74
2022/06/03 00:50:48;;;;;;;5.45;4.20;;;;;;;;;;5115165;27;20026;-74
2022/06/03 00:53:26;;;;;;;5.15;3.90;;;;;;;;;;5106268;27;20123;-73
2022/06/03 00:56:13;;;;;;;6.07;4.30;;;;;;;;;;5117767;27;20120;-77
2022/06/03 00:58:53;;;;;;;5.35;4.35;;;;;;;;;;5119208;27;20026;-77
2022/06/03 01:01:24;;;;;;;5.28;4.20;;;;;;;;;;5118863;27;20114;-75
2022/06/03 01:04:26;;;;;;;5.38;4.07;;;;;;;;;;5117274;27;20031;-75
2022/06/03 01:07:10;;;;;;;5.63;4.28;;;;;;;;;;5111778;27;20418;-75
2022/06/03 01:10:13;;;;;;;5.15;4.13;;;;;;;;;;5116276;27;20092;-76
2022/06/03 01:13:14;;;;;;;5.63;4.15;;;;;;;;;;5115842;27;20054;-77
2022/06/03 01:16:13;;;;;;;4.90;4.07;;;;;;;;;;5114574;27;20023;-77
2022/06/03 01:19:24;;;;;;;5.82;4.10;;;;;;;;;;5123696;27;20079;-76
2022/06/03 01:22:07;;;;;;;5.40;4.30;;;;;;;;;;5046224;28;20048;-77
2022/06/03 01:24:51;;;;;;;5.55;4.40;;;;;;;;;;5114539;27;20096;-75
2022/06/03 01:28:07;;;;;;;7.00;4.80;;;;;;;;;;5113705;27;20075;-75
2022/06/03 01:31:07;;;;;;;5.53;4.47;;;;;;;;;;5045650;28;20039;-76
2022/06/03 01:34:04;;;;;;;5.28;4.10;;;;;;;;;;5110982;27;20621;-74
2022/06/03 01:36:54;;;;;;;5.20;4.30;;;;;;;;;;5115426;27;20073;-73
2022/06/03 01:39:58;;;;;;;5.30;4.45;;;;;;;;;;5116553;27;20085;-77
2022/06/03 01:42:51;;;;;;;5.45;4.07;;;;;;;;;;5120542;27;20035;-73
2022/06/03 01:45:26;;;;;;;6.35;4.50;;;;;;;;;;5114453;27;20079;-77
2022/06/03 01:48:03;;;;;;;5.47;4.25;;;;;;;;;;5118019;27;20031;-75
2022/06/03 01:50:40;;;;;;;5.70;4.25;;;;;;;;;;5117036;27;20042;-75
2022/06/03 01:53:36;;;;;;;5.38;4.25;;;;;;;;;;5116791;27;20068;-74
2022/06/03 01:56:32;;;;;;;4.57;3.85;;;;;;;;;;5120166;27;20040;-75
2022/06/03 01:59:31;;;;;;;5.50;4.13;;;;;;;;;;5104280;28;20019;-73
2022/06/03 02:02:34;;;;;;;5.45;4.20;;;;;;;;;;5115673;27;20363;-77
2022/06/03 02:05:41;;;;;;;5.30;4.20;;;;;;;;;;5124805;27;20102;-76
2022/06/03 02:08:43;;;;;;;5.55;4.38;;;;;;;;;;5078131;28;20411;-76
2022/06/03 02:11:27;;;;;;;5.97;4.00;;;;;;;;;;5116235;27;20539;-75
2022/06/03 02:14:17;;;;;;;6.03;4.00;;;;;;;;;;5122013;28;20025;-76
2022/06/03 02:17:30;;;;;;;4.72;4.03;;;;;;;;;;5120068;28;20824;-73
2022/06/03 02:20:01;;;;;;;5.18;4.10;;;;;;;;;;5072301;28;20504;-74
2022/06/03 02:22:48;;;;;;;6.53;4.35;;;;;;;;;;5098378;28;20035;-73
2022/06/03 02:25:31;;;;;;;6.93;4.50;;;;;;;;;;5116358;28;20030;-73
2022/06/03 02:28:34;;;;;;;5.70;4.33;;;;;;;;;;5103489;28;20027;-74
2022/06/03 02:31:02;;;;;;;6.30;4.50;;;;;;;;;;5118075;28;20295;-75
2022/06/03 02:33:46;;;;;;;6.03;4.50;;;;;;;;;;5123960;28;20312;-73
2022/06/03 02:36:11;;;;;;;6.28;4.68;;;;;;;;;;5120286;28;20066;-75
2022/06/03 02:38:46;;;;;;;5.85;4.45;;;;;;;;;;5114960;28;20047;-73
2022/06/03 02:41:38;;;;;;;5.47;4.15;;;;;;;;;;5122238;28;20016;-76
2022/06/03 02:44:33;;;;;;;6.38;4.72;;;;;;;;;;5117054;28;20445;-76
2022/06/03 02:47:39;;;;;;;6.43;4.72;;;;;;;;;;5124218;28;20024;-77
2022/06/03 02:50:14;;;;;;;5.78;4.25;;;;;;;;;;5096715;28;20487;-77
2022/06/03 02:53:12;;;;;;;4.97;4.10;;;;;;;;;;5116863;27;20083;-75
2022/06/03 02:55:59;;;;;;;5.45;4.43;;;;;;;;;;5116762;27;20030;-74
2022/06/03 02:58:52;;;;;;;5.55;4.38;;;;;;;;;;5107239;27;20160;-73
2022/06/03 03:01:42;;;;;;;6.57;4.35;;;;;;;;;;5100852;27;20051;-74
2022/06/03 03:04:22;;;;;;;5.60;3.90;;;;;;;;;;5102234;27;20045;-75
2022/06/03 03:06:53;;;;;;;6.85;4.35;;;;;;;;;;5121728;27;20024;-73
2022/06/03 03:09:43;;;;;;;6.55;4.15;;;;;;;;;;5118011;27;20019;-73
2022/06/03 03:12:40;;;;;;;6.18;4.18;;;;;;;;;;5105815;27;20105;-74
2022/06/03 03:15:21;;;;;;;6.65;4.10;;;;;;;;;;5117842;27;20031;-76
2022/06/03 03:18:17;;;;;;;5.43;4.20;;;;;;;;;;5122472;27;20015;-73
2022/06/03 03:21:20;;;;;;;5.38;4.35;;;;;;;;;;5118039;27;20046;-73
2022/06/03 03:23:46;;;;;;;5.27;4.37;;;;;;;;;;5114768;27;20023;-76
2022/06/03 03:26:15;;;;;;;7.45;4.75;;;;;;;;;;5119642;27;20478;-76
2022/06/03 03:28:47;;;;;;;5.68;4.38;;;;;;;;;;5120184;27;20487;-74
2022/06/03 03:31:51;;;;;;;5.85;4.47;;;;;;;;;;5122661;27;20026;-73
2022/06/03 03:34:37;;;;;;;5.30;4.18;;;;;;;;;;5121360;27;20456;-73
2022/06/03 03:37:25;;;;;;;6.07;4.53;;;;;;;;;;5095561;27;20042;-73
2022/06/03 03:40:27;;;;;;;5.40;4.30;;;;;;;;;;5121548;27;20111;-73
2022/06/03 03:43:14;;;;;;;5.60;4.05;;;;;;;;;;5118032;27;20038;-73
2022/06/03 03:46:06;;;;;;;5.93;4.43;;;;;;;;;;5117729;27;20051;-76
2022/06/03 03:49:06;;;;;;;5.57;4.45;;;;;;;;;;5108429;27;20475;-77
2022/06/03 03:51:46;;;;;;;5.90;4.32;;;;;;;;;;5119226;27;20031;-76
2022/06/03 03:54:25;;;;;;;5.82;4.05;;;;;;;;;;5122331;27;20169;-73
2022/06/03 03:57:34;;;;;;;5.03;3.83;;;;;;;;;;5113609;27;20723;-73
2022/06/03 04:00:12;;;;;;;5.40;4.25;;;;;;;;;;5117820;27;20031;-77
2022/06/03 04:02:52;;;;;;;6.82;4.38;;;;;;;;;;5118523;27;20062;-76
2022/06/03 04:05:48;;;;;;;5.70;4.40;;;;;;;;;;5120761;27;20027;-73
2022/06/03 04:08:57;;;;;;;5.57;4.25;;;;;;;;;;5097463;27;20032;-76
2022/06/03 04:11:40;;;;;;;5.72;4.35;;;;;;;;;;5096000;27;20439;-77
2022/06/03 04:14:48;;;;;;;5.53;4.20;;;;;;;;;;5102120;27;20550;-75
2022/06/03 04:17:43;;;;;;;6.03;3.95;;;;;;;;;;5106378;27;20023;-75
2022/06/03 04:20:38;;;;;;;6.07;4.07;;;;;;;;;;5121694;27;20491;-73
2022/06/03 04:23:23;;;;;;;6.20;4.43;;;;;;;;;;5097470;27;20019;-75
2022/06/03 04:26:22;;;;;;;5.82;4.30;;;;;;;;;;5102974;27;22540;-76
2022/06/03 04:28:47;;;;;;;6.55;4.68;;;;;;;;;;5121634;27;20032;-76
2022/06/03 04:31:49;;;;;;;6.40;4.13;;;;;;;;;;5116076;27;20027;-74
2022/06/03 04:34:40;;;;;;;5.55;4.43;;;;;;;;;;5096351;27;20096;-73
2022/06/03 04:37:15;;;;;;;6.20;4.55;;;;;;;;;;5101043;27;20035;-73
2022/06/03 04:39:58;;;;;;;6.82;4.95;;;;;;;;;;5115166;27;20021;-73
2022/06/03 04:42:42;;;;;;;6.15;4.45;;;;;;;;;;5102053;27;20042;-75
2022/06/03 04:45:49;;;;;;;6.47;4.85;;;;;;;;;;5117698;27;20015;-75
2022/06/03 04:48:52;;;;;;;6.70;5.00;;;;;;;;;;5100128;27;20049;-73
2022/06/03 04:51:33;;;;;;;8.13;5.57;;;;;;;;;;5123410;27;20678;-76
2022/06/03 04:54:35;;;;;;;5.70;4.45;;;;;;;;;;5117662;27;20027;-73
2022/06/03 04:57:45;;;;;;;6.45;5.25;;;;;;;;;;5113906;27;20106;-75
2022/06/03 05:00:27;;;;;;;7.43;5.45;;;;;;;;;;5081683;27;20039;-73
2022/06/03 05:03:17;;;;;;;8.10;4.80;;;;;;;;;;5112979;27;20050;-76
2022/06/03 05:06:07;;;;;;;7.07;4.75;;;;;;;;;;5106500;27;20023;-75
2022/06/03 05:09:10;;;;;;;7.20;4.75;;;;;;;;;;5102958;27;20487;-76
2022/06/03 05:12:13;;;;;;;7.45;5.32;;;;;;;;;;5107566;27;20034;-73
2022/06/03 05:14:57;;;;;;;7.13;5.30;;;;;;;;;;5117872;27;20042;-77
2022/06/03 05:17:50;;;;;;;8.77;5.40;;;;;;;;;;5120910;27;20267;-75
2022/06/03 05:20:33;;;;;;;8.18;5.05;;;;;;;;;;5118310;27;20153;-73
2022/06/03 05:23:07;;;;;;;6.47;5.40;;;;;;;;;;5099527;27;20042;-76
2022/06/03 05:25:38;;;;;;;7.05;5.07;;;;;;;;;;5119317;27;20114;-75
2022/06/03 05:28:29;;;;;;;7.18;5.35;;;;;;;;;;5113839;27;20038;-73
2022/06/03 05:31:31;;;;;;;8.65;5.60;;;;;;;;;;5117065;27;20043;-75
2022/06/03 05:34:22;;;;;;;7.03;5.55;;;;;;;;;;5112875;27;20035;-74
2022/06/03 05:37:03;;;;;;;8.07;5.57;;;;;;;;;;5117473;27;20023;-74
2022/06/03 05:39:52;;;;;;;8.70;5.68;;;;;;;;;;5121947;27;20039;-73
2022/06/03 05:42:38;;;;;;;9.50;5.75;;;;;;;;;;5114041;27;20551;-73
2022/06/03 05:45:22;;;;;;;6.90;5.75;;;;;;;;;;5117490;27;20034;-74
2022/06/03 05:47:56;;;;;;;8.30;6.45;;;;;;;;;;5115686;27;20055;-77
2022/06/03 05:51:27;;;;;;;6.50;5.38;;;;;;;;;;5124420;27;20038;-77
2022/06/03 05:54:17;;;;;;;8.90;5.47;;;;;;;;;;5000497;28;20080;-73
2022/06/03 05:56:48;;;;;;;7.38;5.78;;;;;;;;;;4998954;28;20049;-73
2022/06/03 05:59:16;;;;;;;11.25;5.72;;;;;;;;;;5077562;27;20046;-74
2022/06/03 06:01:45;;;;;;;7.07;5.80;;;;;;;;;;5117599;27;20031;-76
2022/06/03 06:04:32;;;;;;;7.28;5.68;;;;;;;;;;5119778;27;20098;-76
2022/06/03 06:07:11;;;;;;;7.18;5.97;;;;;;;;;;5103298;28;20087;-75
2022/06/03 06:09:51;;;;;;;6.93;5.70;;;;;;;;;;5118888;28;20549;-76
2022/06/03 06:12:24;;;;;;;6.43;5.28;;;;;;;;;;5120531;28;20039;-75
2022/06/03 06:15:08;;;;;;;6.65;5.95;;;;;;;;;;5124108;27;20098;-75
2022/06/03 06:17:53;;;;;;;7.72;5.55;;;;;;;;;;5119297;27;21609;-76
2022/06/03 06:20:49;;;;;;;6.70;5.43;;;;;;;;;;5122150;28;20366;-76
2022/06/03 06:23:17;;;;;;;7.57;5.60;;;;;;;;;;5110677;28;20026;-77
2022/06/03 06:26:01;;;;;;;6.97;5.55;;;;;;;;;;5118584;28;20094;-73
2022/06/03 06:28:35;;;;;;;6.75;5.40;;;;;;;;;;5112170;27;20413;-73
2022/06/03 06:31:31;;;;;;;8.50;5.22;;;;;;;;;;5122663;27;20077;-75
2022/06/03 06:34:18;;;;;;;6.88;5.22;;;;;;;;;;5118280;27;20394;-76
2022/06/03 06:36:58;;;;;;;7.85;5.30;;;;;;;;;;5103504;27;20395;-73
2022/06/03 06:39:42;;;;;;;7.18;5.32;;;;;;;;;;5116658;27;20035;-73
2022/06/03 06:42:26;;;;;;;6.32;5.18;;;;;;;;;;5099885;27;20038;-74
2022/06/03 06:45:20;;;;;;;7.53;6.05;;;;;;;;;;5098508;27;20027;-77
2022/06/03 06:48:10;;;;;;;6.88;5.10;;;;;;;;;;5106387;27;20395;-76
2022/06/03 06:50:47;;;;;;;5.57;4.75;;;;;;;;;;5117118;27;20073;-73
2022/06/03 06:53:37;;;;;;;7.47;5.55;;;;;;;;;;5108111;27;20015;-77
2022/06/03 06:56:21;;;;;;;6.32;5.32;;;;;;;;;;5101863;27;20039;-74
2022/06/03 06:58:56;;;;;;;6.82;5.50;;;;;;;;;;5103905;27;20043;-74
2022/06/03 07:01:32;;;;;;;6.82;5.22;;;;;;;;;;5096661;27;20097;-74
2022/06/03 07:04:21;;;;;;;6.55;5.32;;;;;;;;;;5116854;27;20479;-74
2022/06/03 07:06:55;;;;;;;5.63;4.78;;;;;;;;;;5121997;27;20044;-73
2022/06/03 07:09:29;;;;;;;6.82;4.93;;;;;;;;;;5107073;27;20390;-74
2022/06/03 07:12:06;;;;;;;6.10;4.60;;;;;;;;;;5109976;27;20031;-76
2022/06/03 07:14:39;;;;;;;7.28;5.20;;;;;;;;;;5123190;27;20163;-73
2022/06/03 07:20:27;;;;;;;7.63;5.63;;;;;;;;;;5117733;27;20112;-73
2022/06/03 07:22:56;;;;;;;11.45;5.18;;;;;;;;;;5120580;27;20358;-74
2022/06/03 07:25:30;;;;;;;7.10;5.28;;;;;;;;;;5125515;27;20025;-74
2022/06/03 07:28:09;;;;;;;7.70;5.20;;;;;;;;;;5100907;27;20121;-73
2022/06/03 07:30:51;;;;;;;7.20;4.90;;;;;;;;;;5108098;27;20031;-73
2022/06/03 07:33:32;;;;;;;6.60;5.03;;;;;;;;;;5108763;27;20019;-73
2022/06/03 07:36:06;;;;;;;5.93;4.95;;;;;;;;;;5107977;27;20547;-74
2022/06/03 07:38:42;;;;;;;5.72;4.47;;;;;;;;;;5110575;27;20027;-74
2022/06/03 07:41:17;;;;;;;6.00;4.97;;;;;;;;;;5119951;27;20030;-74
2022/06/03 07:43:54;;;;;;;6.93;5.38;;;;;;;;;;5118520;27;20027;-72
2022/06/03 07:46:28;;;;;;;7.38;5.20;;;;;;;;;;5131465;27;20040;-74
2022/06/03 07:48:53;;;;;;;6.05;4.72;;;;;;;;;;5119034;27;20486;-74
2022/06/03 07:51:31;;;;;;;7.43;5.20;;;;;;;;;;5115843;27;20023;-76
2022/06/03 07:54:22;;;;;;;6.60;5.35;;;;;;;;;;5107584;27;20019;-74
2022/06/03 07:56:49;;;;;;;7.22;5.15;;;;;;;;;;5130732;27;20034;-72
2022/06/03 07:59:19;;;;;;;6.20;4.90;;;;;;;;;;5128049;27;20031;-76
2022/06/03 08:02:01;;;;;;;7.25;5.28;;;;;;;;;;5122431;27;20510;-72
2022/06/03 08:04:31;;;;;;;5.90;4.88;;;;;;;;;;5123326;27;20032;-72
2022/06/03 08:12:30;;;;;;;7.88;4.93;;;;;;;;;;5115604;27;20108;-74
2022/06/03 08:14:56;;;;;;;6.72;5.05;;;;;;;;;;5120113;27;20088;-76
2022/06/03 08:17:23;;;;;;;7.03;5.22;;;;;;;;;;5118126;27;20043;-75
2022/06/03 08:19:50;;;;;;;6.93;4.97;;;;;;;;;;5106943;28;20192;-75
2022/06/03 08:22:20;;;;;;;5.85;4.78;;;;;;;;;;5108768;28;20024;-75
2022/06/03 08:24:55;;;;;;;6.95;4.95;;;;;;;;;;5106389;28;20023;-74
2022/06/03 08:27:27;;;;;;;5.22;4.40;;;;;;;;;;5104931;28;20062;-73
2022/06/03 08:30:17;;;;;;;7.57;4.60;;;;;;;;;;5107815;28;20061;-71
2022/06/03 08:33:08;;;;;;;5.78;4.85;;;;;;;;;;5104952;28;20016;-73
2022/06/03 08:35:43;;;;;;;5.57;4.43;;;;;;;;;;5089589;28;20082;-74
2022/06/03 08:38:11;;;;;;;6.78;4.93;;;;;;;;;;5105858;28;20484;-74
2022/06/03 08:40:57;;;;;;;6.32;4.90;;;;;;;;;;5107422;28;20054;-74
2022/06/03 08:43:39;;;;;;;5.85;4.75;;;;;;;;;;5104546;28;20529;-74
2022/06/03 08:46:17;;;;;;;5.57;4.30;;;;;;;;;;5103376;27;20031;-73
2022/06/03 08:48:45;;;;;;;5.50;4.35;;;;;;;;;;5101744;28;20020;-73
2022/06/03 08:52:15;;;;;;;7.55;4.82;;;;;;;;;;5101953;28;20031;-75
2022/06/03 08:54:47;;;;;;;6.30;5.05;;;;;;;;;;5062899;28;20042;-74
2022/06/03 08:57:18;;;;;;;8.15;4.55;;;;;;;;;;5119082;27;20027;-75
2022/06/03 09:00:05;;;;;;;7.07;5.20;;;;;;;;;;5096713;27;20020;-72
2022/06/03 09:02:49;;;;;;;6.07;4.60;;;;;;;;;;5101571;27;20111;-73
2022/06/03 09:05:21;;;;;;;6.00;4.57;;;;;;;;;;5103459;28;20496;-73
2022/06/03 09:07:58;;;;;;;6.28;4.47;;;;;;;;;;5103174;28;20020;-73
2022/06/03 09:10:40;;;;;;;5.20;4.43;;;;;;;;;;5104111;28;20054;-73
2022/06/03 09:13:19;;;;;;;6.95;4.72;;;;;;;;;;5105092;28;20028;-74
2022/06/03 09:15:46;;;;;;;8.00;4.75;;;;;;;;;;5102551;28;20034;-73
2022/06/03 09:18:27;;;;;;;6.25;4.20;;;;;;;;;;5106224;28;20023;-76
2022/06/03 09:21:00;;;;;;;4.95;3.70;;;;;;;;;;5111313;28;20031;-75
2022/06/03 09:23:27;;;;;;;5.03;4.18;;;;;;;;;;5105025;28;20032;-73
2022/06/03 09:26:00;;;;;;;5.63;4.30;;;;;;;;;;5106739;28;20031;-73
2022/06/03 09:28:35;;;;;;;5.20;3.78;;;;;;;;;;5103390;28;20395;-75
2022/06/03 09:31:10;;;;;;;5.70;3.95;;;;;;;;;;5104049;28;20028;-76
2022/06/03 09:33:37;;;;;;;5.45;4.18;;;;;;;;;;5097238;28;20475;-76
2022/06/03 09:36:06;;;;;;;5.40;4.03;;;;;;;;;;5108426;28;20027;-73
2022/06/03 09:38:44;;;;;;;6.32;4.00;;;;;;;;;;5105253;28;20024;-76
2022/06/03 09:41:09;;;;;;;4.80;3.80;;;;;;;;;;5100493;28;20031;-74
2022/06/03 09:43:40;;;;;;;6.63;4.47;;;;;;;;;;5100592;28;20034;-74
2022/06/03 09:46:11;;;;;;;5.63;4.28;;;;;;;;;;5103795;27;20054;-75
2022/06/03 09:48:37;;;;;;;5.25;3.97;;;;;;;;;;5103832;28;20027;-76
2022/06/03 09:51:24;;;;;;;5.18;4.10;;;;;;;;;;5104334;28;20023;-74
2022/06/03 09:53:50;;;;;;;4.95;3.30;;;;;;;;;;5111585;27;20016;-76
2022/06/03 09:56:29;;;;;;;4.45;3.30;;;;;;;;;;5110745;28;20034;-76
2022/06/03 09:58:58;;;;;;;5.90;3.45;;;;;;;;;;5104001;28;20542;-72
2022/06/03 10:01:24;;;;;;;4.53;2.85;;;;;;;;;;5104598;28;20031;-76
2022/06/03 10:03:56;;;;;;;4.93;2.85;;;;;;;;;;5103784;28;20484;-72
2022/06/03 10:14:33;;;;;;;3.92;2.60;;;;;;;;;;5103749;28;20136;-75
2022/06/03 10:16:58;;;;;;;3.05;2.22;;;;;;;;;;5100211;28;20849;-74
2022/06/03 10:19:23;;;;;;;3.90;2.60;;;;;;;;;;5100438;28;20032;-74
2022/06/03 10:21:52;;;;;;;2.67;1.83;;;;;;;;;;5095066;28;20080;-74
2022/06/03 10:24:17;;;;;;;4.47;2.83;;;;;;;;;;5100796;28;20863;-74
2022/06/03 10:26:49;;;;;;;3.50;2.10;;;;;;;;;;5101435;28;20116;-75
2022/06/03 10:29:19;;;;;;;3.55;2.28;;;;;;;;;;5092551;28;20386;-73
2022/06/03 10:31:53;;;;;;;2.53;1.73;;;;;;;;;;5095328;28;20745;-75
2022/06/03 10:34:24;;;;;;;2.53;1.70;;;;;;;;;;5096231;28;20043;-75
2022/06/03 10:36:52;;;;;;;2.22;1.52;;;;;;;;;;5098189;28;20024;-75
2022/06/03 10:39:19;;;;;;;2.83;1.85;;;;;;;;;;5095351;28;20388;-72
2022/06/03 10:41:59;;;;;;;3.45;2.13;;;;;;;;;;5096221;28;20067;-75
2022/06/03 10:44:36;;;;;;;2.35;1.83;;;;;;;;;;5097123;28;20035;-73
2022/06/03 10:47:04;;;;;;;2.88;1.88;;;;;;;;;;5095284;28;20574;-75
2022/06/03 10:49:32;;;;;;;2.80;1.70;;;;;;;;;;5099702;28;20050;-76
2022/06/03 11:03:07;;;;;;;2.85;1.92;;;;;;;;;;5087587;28;20475;-76
2022/06/03 11:05:36;;;;;;;2.63;1.70;;;;;;;;;;5093937;28;20038;-75
2022/06/03 11:08:05;;;;;;;2.80;1.90;;;;;;;;;;5087327;28;20032;-76
2022/06/03 11:10:37;;;;;;;3.90;2.38;;;;;;;;;;5095588;28;20020;-75
2022/06/03 11:13:05;;;;;;;2.63;1.90;;;;;;;;;;5097054;28;20511;-75
2022/06/03 11:15:37;;;;;;;3.63;2.63;;;;;;;;;;5090277;28;20024;-74
2022/06/03 11:18:14;;;;;;;2.63;1.85;;;;;;;;;;5090380;28;20035;-75
2022/06/03 11:20:40;;;;;;;2.92;2.08;;;;;;;;;;5094446;28;20369;-75
2022/06/03 11:23:08;;;;;;;2.85;2.05;;;;;;;;;;5093631;28;20106;-75
2022/06/03 11:25:38;;;;;;;3.22;2.13;;;;;;;;;;5096989;28;20026;-75
2022/06/03 11:28:06;;;;;;;2.95;2.22;;;;;;;;;;5099299;28;20039;-75
2022/06/03 11:30:51;;;;;;;3.63;2.35;;;;;;;;;;5095310;28;20546;-76
2022/06/03 11:33:22;;;;;;;3.85;2.60;;;;;;;;;;5106928;27;20052;-76
2022/06/03 11:36:05;;;;;;;3.58;2.00;;;;;;;;;;5096337;28;20068;-74
2022/06/03 11:38:43;;;;;;;4.43;2.92;;;;;;;;;;5090171;28;20040;-76
2022/06/03 11:41:34;;;;;;;4.65;2.28;;;;;;;;;;5101164;28;20028;-75
2022/06/03 11:44:44;;;;;;;2.80;2.08;;;;;;;;;;5092348;28;20043;-75
2022/06/03 11:47:16;;;;;;;2.92;2.00;;;;;;;;;;5088704;28;20552;-75
2022/06/03 11:49:42;;;;;;;4.97;1.90;;;;;;;;;;5091546;28;20032;-75
2022/06/03 11:52:08;;;;;;;3.15;1.95;;;;;;;;;;5101128;27;20522;-75
2022/06/03 11:54:36;;;;;;;2.40;1.65;;;;;;;;;;5098022;27;20026;-75
2022/06/03 11:57:02;;;;;;;3.30;2.22;;;;;;;;;;5090202;28;20032;-75
2022/06/03 11:59:50;;;;;;;3.30;2.08;;;;;;;;;;5091736;28;20031;-75
2022/06/03 12:02:21;;;;;;;2.67;1.98;;;;;;;;;;5091944;28;20035;-74
2022/06/03 12:04:51;;;;;;;2.35;1.63;;;;;;;;;;5094272;28;20028;-77
2022/06/03 12:07:36;;;;;;;2.58;1.80;;;;;;;;;;5090762;28;20122;-76
2022/06/03 12:10:26;;;;;;;3.13;2.30;;;;;;;;;;5103135;28;20093;-74
2022/06/03 12:13:26;;;;;;;6.40;1.90;;;;;;;;;;5094955;28;20396;-74
2022/06/03 12:15:56;;;;;;;1.80;1.42;;;;;;;;;;5107283;28;20027;-74
2022/06/03 12:18:41;;;;;;;3.08;1.60;;;;;;;;;;5103225;28;20383;-76
2022/06/03 12:21:27;;;;;;;3.40;1.65;;;;;;;;;;5102305;28;20510;-74
2022/06/03 12:23:54;;;;;;;1.95;1.40;;;;;;;;;;5089459;28;20036;-75
2022/06/03 12:26:27;;;;;;;2.17;1.50;;;;;;;;;;5096172;28;20024;-77
2022/06/03 12:29:01;;;;;;;2.72;2.20;;;;;;;;;;5104881;28;20023;-74
2022/06/03 12:31:36;;;;;;;3.15;1.70;;;;;;;;;;5100434;28;20019;-75
2022/06/03 12:34:11;;;;;;;1.65;1.30;;;;;;;;;;5109120;28;20035;-75
2022/06/03 12:36:51;;;;;;;2.25;1.58;;;;;;;;;;5106998;28;20038;-74
2022/06/03 12:39:27;;;;;;;2.88;1.60;;;;;;;;;;5097483;27;20032;-76
2022/06/03 12:42:00;;;;;;;1.80;1.38;;;;;;;;;;5110598;28;20031;-74
2022/06/03 12:44:37;;;;;;;2.60;1.63;;;;;;;;;;5106661;28;20039;-74
2022/06/03 12:47:17;;;;;;;2.58;1.48;;;;;;;;;;5105540;28;20027;-74
2022/06/03 12:49:43;;;;;;;2.50;1.50;;;;;;;;;;5096347;28;20027;-74
2022/06/03 12:52:12;;;;;;;2.60;1.50;;;;;;;;;;5104442;27;20395;-74
2022/06/03 12:54:47;;;;;;;2.03;1.30;;;;;;;;;;5104103;28;20023;-74
2022/06/03 12:57:24;;;;;;;2.08;1.23;;;;;;;;;;5102929;27;20024;-75
2022/06/03 12:59:55;;;;;;;1.33;0.95;;;;;;;;;;5101195;28;20038;-74
2022/06/03 13:02:28;;;;;;;2.55;1.40;;;;;;;;;;5107889;27;20498;-74
2022/06/03 13:04:53;;;;;;;1.75;1.20;;;;;;;;;;5111390;28;20032;-76
2022/06/03 13:07:28;;;;;;;1.10;1.00;;;;;;;;;;5100812;28;20035;-75
2022/06/03 13:10:02;;;;;;;2.80;1.50;;;;;;;;;;5107234;28;20419;-75
2022/06/03 13:12:30;;;;;;;2.00;1.40;;;;;;;;;;5107687;28;20020;-75
2022/06/03 13:15:16;;;;;;;1.85;1.20;;;;;;;;;;5106990;28;20034;-76
2022/06/03 13:18:12;;;;;;;6.28;1.30;;;;;;;;;;5108531;27;20387;-74
2022/06/03 13:20:42;;;;;;;2.13;1.40;;;;;;;;;;5106838;28;20127;-74
2022/06/03 13:23:29;;;;;;;2.20;1.30;;;;;;;;;;5095867;28;20051;-74
2022/06/03 13:26:15;;;;;;;1.50;1.20;;;;;;;;;;5095631;28;20458;-74
2022/06/03 13:28:43;;;;;;;1.35;1.17;;;;;;;;;;5105526;28;20449;-75
2022/06/03 13:31:22;;;;;;;2.30;1.23;;;;;;;;;;5107249;27;20445;-75
2022/06/03 13:34:12;;;;;;;2.08;1.30;;;;;;;;;;5096842;28;20020;-74
2022/06/03 13:36:49;;;;;;;1.42;1.00;;;;;;;;;;5095070;28;20138;-75
2022/06/03 13:39:23;;;;;;;2.00;1.40;;;;;;;;;;5101400;28;20028;-76
2022/06/03 13:44:46;;;;;;;1.75;1.15;;;;;;;;;;5104643;28;20058;-74
2022/06/03 13:47:25;;;;;;;2.95;1.30;;;;;;;;;;5108175;28;20024;-75
2022/06/03 13:49:57;;;;;;;2.17;1.52;;;;;;;;;;5102113;28;20080;-75
2022/06/03 13:52:29;;;;;;;3.30;1.55;;;;;;;;;;5111851;27;20054;-75
2022/06/03 13:55:20;;;;;;;2.95;1.50;;;;;;;;;;5102077;28;20263;-75
2022/06/03 13:57:58;;;;;;;2.83;1.65;;;;;;;;;;5094925;28;20028;-74
2022/06/03 14:00:31;;;;;;;1.95;1.20;;;;;;;;;;5101978;27;20023;-74
2022/06/03 14:03:20;;;;;;;1.88;1.35;;;;;;;;;;5098437;28;20023;-74
2022/06/03 14:06:08;;;;;;;1.58;1.20;;;;;;;;;;5104225;28;20034;-74
2022/06/03 14:08:35;;;;;;;1.77;1.30;;;;;;;;;;5113206;27;20043;-75
2022/06/03 14:11:03;;;;;;;2.08;1.45;;;;;;;;;;5099644;28;20032;-75
2022/06/03 14:13:51;;;;;;;3.90;1.27;;;;;;;;;;5104505;28;20432;-75
2022/06/03 14:16:39;;;;;;;1.70;1.25;;;;;;;;;;5100978;28;20062;-74
2022/06/03 14:19:07;;;;;;;2.20;1.20;;;;;;;;;;5107353;28;20113;-75
2022/06/03 14:21:42;;;;;;;2.60;1.20;;;;;;;;;;5100403;28;20028;-72
2022/06/03 14:24:20;;;;;;;1.65;1.30;;;;;;;;;;5112024;28;20031;-75
2022/06/03 14:26:56;;;;;;;2.65;1.50;;;;;;;;;;5101022;28;20042;-75
2022/06/03 14:29:38;;;;;;;3.05;1.33;;;;;;;;;;5101435;28;20063;-75
2022/06/03 14:32:11;;;;;;;3.27;1.40;;;;;;;;;;5103448;28;20054;-76
2022/06/03 14:34:50;;;;;;;3.15;1.40;;;;;;;;;;5099411;28;20101;-73
2022/06/03 14:37:21;;;;;;;2.38;1.40;;;;;;;;;;5104243;28;20020;-75
2022/06/03 14:39:51;;;;;;;2.38;1.17;;;;;;;;;;5095509;28;20961;-74
2022/06/03 14:42:26;;;;;;;2.67;1.30;;;;;;;;;;5105347;28;20092;-71
2022/06/03 14:44:52;;;;;;;1.40;1.20;;;;;;;;;;5109410;28;20028;-75
2022/06/03 14:47:31;;;;;;;2.35;1.42;;;;;;;;;;5106237;28;20466;-73
2022/06/03 14:50:04;;;;;;;1.83;1.20;;;;;;;;;;5106620;28;20481;-71
2022/06/03 14:52:37;;;;;;;1.85;1.33;;;;;;;;;;5113616;27;20077;-71
2022/06/03 14:55:13;;;;;;;2.40;1.35;;;;;;;;;;5101958;28;20020;-75
2022/06/03 14:57:48;;;;;;;2.10;1.50;;;;;;;;;;5109133;28;20038;-72
2022/06/03 15:00:41;;;;;;;2.50;1.65;;;;;;;;;;5105180;27;20089;-75
2022/06/03 15:03:21;;;;;;;;;;;;;;;;;;5112128;28;20062;-75
2022/06/03 15:05:52;;;;;;;2.15;1.60;;;;;;;;;;5105323;28;19959;-75
2022/06/03 15:08:46;;;;;;;2.15;1.48;;;;;;;;;;5105795;27;20487;-75
2022/06/03 15:11:39;;;;;;;3.17;1.80;;;;;;;;;;5104609;27;20030;-75
2022/06/03 15:14:10;;;;;;;2.97;1.43;;;;;;;;;;5118964;27;20087;-74
2022/06/03 15:16:54;;;;;;;2.50;1.50;;;;;;;;;;5104924;28;20252;-74
2022/06/03 15:19:41;;;;;;;2.35;1.35;;;;;;;;;;5108054;28;20027;-74
2022/06/03 15:22:20;;;;;;;1.85;1.45;;;;;;;;;;5109479;28;20058;-76
2022/06/03 15:25:05;;;;;;;2.80;1.80;;;;;;;;;;5098421;28;20103;-74
2022/06/03 15:27:46;;;;;;;3.25;1.70;;;;;;;;;;5101746;28;20027;-74
2022/06/03 15:30:20;;;;;;;2.80;1.40;;;;;;;;;;5101616;28;20028;-74
2022/06/03 15:32:46;;;;;;;2.28;1.70;;;;;;;;;;5106390;28;20047;-76
2022/06/03 15:35:21;;;;;;;3.28;1.60;;;;;;;;;;5096047;28;20103;-74
2022/06/03 15:37:46;;;;;;;1.88;1.50;;;;;;;;;;5108515;28;20028;-74
2022/06/03 15:40:33;;;;;;;2.00;1.33;;;;;;;;;;5106685;28;20028;-74
2022/06/03 15:43:01;;;;;;;2.63;1.50;;;;;;;;;;5107775;28;20028;-75
2022/06/03 15:45:36;;;;;;;2.15;1.50;;;;;;;;;;5101938;28;20103;-74
2022/06/03 15:48:08;;;;;;;2.42;1.60;;;;;;;;;;5114314;28;20115;-74
2022/06/03 15:50:35;;;;;;;3.78;1.70;;;;;;;;;;5109937;28;20024;-76
2022/06/03 15:53:04;;;;;;;3.00;1.50;;;;;;;;;;5110191;28;20031;-74
2022/06/03 15:55:52;;;;;;;2.50;1.60;;;;;;;;;;5106971;28;20015;-74
2022/06/03 15:58:51;;;;;;;2.33;1.75;;;;;;;;;;5106325;28;20023;-76
2022/06/03 16:01:35;;;;;;;1.80;1.30;;;;;;;;;;5112582;28;20089;-74
2022/06/03 16:04:11;;;;;;;2.78;1.30;;;;;;;;;;5101565;28;20035;-75
2022/06/03 16:07:13;;;;;;;2.42;1.50;;;;;;;;;;5100088;28;20024;-74
2022/06/03 16:09:49;;;;;;;3.17;1.58;;;;;;;;;;5100794;28;20480;-73
2022/06/03 16:12:42;;;;;;;3.40;1.60;;;;;;;;;;5109257;28;20072;-74
2022/06/03 16:15:41;;;;;;;1.88;1.52;;;;;;;;;;5084448;28;20509;-74
2022/06/03 16:18:39;;;;;;;3.03;1.85;;;;;;;;;;5113364;28;20019;-74
2022/06/03 16:21:40;;;;;;;3.35;1.77;;;;;;;;;;5101789;28;20484;-76
2022/06/03 16:24:26;;;;;;;2.85;1.75;;;;;;;;;;5095497;28;20115;-74
2022/06/03 16:27:22;;;;;;;3.15;2.00;;;;;;;;;;5107522;28;20028;-76
2022/06/03 16:29:53;;;;;;;3.35;2.28;;;;;;;;;;5097858;28;20518;-74
2022/06/03 16:32:24;;;;;;;3.95;2.10;;;;;;;;;;5098582;28;20028;-74
2022/06/03 16:34:56;;;;;;;3.72;2.13;;;;;;;;;;5096151;27;20052;-75
2022/06/03 16:37:36;;;;;;;3.25;2.00;;;;;;;;;;5096570;27;20119;-75